Time;durP1;ratioP1;P1;durP2;ratioP2;P2;SDS_P1;SDS_P2;PMS_P1;PMS_P2;Temp;Humidity;BMP_temperature;BMP_pressure;BME280_temperature;BME280_humidity;BME280_pressure;Samples;Min_cycle;Max_cycle;Signal;HPM_P1;HPM_P2
2021/01/11 00:02:26;;;;;;;71.20;40.40;;;3.20;83.90;;;;;;4873541;28;86766;-81
2021/01/11 00:04:52;;;;;;;62.03;37.07;;;3.20;84.00;;;;;;4892623;28;88396;-82
2021/01/11 00:07:18;;;;;;;61.97;37.07;;;3.20;84.00;;;;;;5071337;23;88564;-79
2021/01/11 00:09:44;;;;;;;67.77;45.07;;;3.20;83.80;;;;;;4858206;28;88318;-83
2021/01/11 00:12:10;;;;;;;65.03;41.00;;;3.20;83.80;;;;;;5251277;23;88790;-79
2021/01/11 00:14:36;;;;;;;63.23;39.70;;;3.10;84.20;;;;;;4925137;28;87015;-83
2021/01/11 00:17:02;;;;;;;133.53;61.87;;;3.10;84.90;;;;;;4924258;28;87668;-83
2021/01/11 00:19:28;;;;;;;151.67;67.53;;;3.10;83.90;;;;;;4906797;28;86809;-83
2021/01/11 00:21:55;;;;;;;140.83;62.63;;;3.10;83.60;;;;;;4925229;28;86848;-83
2021/01/11 00:24:21;;;;;;;183.37;78.40;;;3.00;83.40;;;;;;4891556;28;89800;-83
2021/01/11 00:26:53;;;;;;;151.60;66.53;;;3.00;83.30;;;;;;4892798;28;90626;-83
2021/01/11 00:29:20;;;;;;;143.97;64.33;;;3.00;83.30;;;;;;4924176;28;86943;-83
2021/01/11 00:31:49;;;;;;;112.93;58.07;;;3.00;83.10;;;;;;4925793;28;86571;-83
2021/01/11 00:34:15;;;;;;;98.90;54.60;;;3.00;83.30;;;;;;5055293;23;90791;-79
2021/01/11 00:36:45;;;;;;;91.17;51.00;;;2.90;83.80;;;;;;4907550;28;90619;-83
2021/01/11 00:39:12;;;;;;;78.53;45.60;;;2.90;84.30;;;;;;4907829;28;86166;-79
2021/01/11 00:41:38;;;;;;;70.63;40.47;;;3.00;84.30;;;;;;5197919;23;88491;-80
2021/01/11 00:44:04;;;;;;;67.50;40.77;;;2.90;84.30;;;;;;4909220;28;87240;-82
2021/01/11 00:46:31;;;;;;;67.70;40.07;;;3.00;84.30;;;;;;4891388;28;89946;-81
2021/01/11 00:48:57;;;;;;;68.90;39.40;;;2.90;84.50;;;;;;4929027;23;86107;-83
2021/01/11 00:51:25;;;;;;;65.70;38.57;;;2.90;84.10;;;;;;4886239;28;86020;-79
2021/01/11 00:53:57;;;;;;;61.07;34.93;;;2.90;84.30;;;;;;4874455;28;89840;-81
2021/01/11 00:56:24;;;;;;;62.53;34.90;;;2.90;84.60;;;;;;4885426;28;89529;-82
2021/01/11 00:58:50;;;;;;;60.83;37.33;;;2.80;84.80;;;;;;4885056;29;87501;-82
2021/01/11 01:01:21;;;;;;;59.63;36.90;;;2.70;85.20;;;;;;4885324;29;86913;-82
2021/01/11 01:03:51;;;;;;;69.43;38.33;;;2.60;85.70;;;;;;4883856;29;90208;-83
2021/01/11 01:06:18;;;;;;;80.00;43.43;;;2.60;85.90;;;;;;4884523;29;89874;-81
2021/01/11 01:08:44;;;;;;;70.57;42.43;;;2.60;85.80;;;;;;4884748;28;87281;-82
2021/01/11 01:11:11;;;;;;;64.97;38.50;;;2.60;85.70;;;;;;4900102;28;86828;-83
2021/01/11 01:13:38;;;;;;;61.97;38.83;;;2.60;85.60;;;;;;4883000;29;89504;-82
2021/01/11 01:16:05;;;;;;;73.13;41.13;;;2.60;85.70;;;;;;4852896;29;89574;-82
2021/01/11 01:18:32;;;;;;;86.47;49.57;;;2.60;85.80;;;;;;4883245;29;86555;-82
2021/01/11 01:20:58;;;;;;;67.77;38.57;;;2.60;85.50;;;;;;4867680;29;87112;-82
2021/01/11 01:23:25;;;;;;;62.53;37.27;;;2.60;85.40;;;;;;4882902;29;90818;-82
2021/01/11 01:25:51;;;;;;;65.87;37.07;;;2.60;85.60;;;;;;4900337;28;87756;-82
2021/01/11 01:28:17;;;;;;;59.70;35.20;;;2.50;85.80;;;;;;4884196;28;86800;-81
2021/01/11 01:30:43;;;;;;;61.67;34.70;;;2.40;86.20;;;;;;4885176;28;86688;-83
2021/01/11 01:33:09;;;;;;;56.13;35.33;;;2.40;86.60;;;;;;4888137;28;86939;-83
2021/01/11 01:35:36;;;;;;;54.80;34.30;;;2.40;86.40;;;;;;4869871;29;89705;-81
2021/01/11 01:38:02;;;;;;;65.87;36.27;;;2.40;86.30;;;;;;4903065;28;86747;-82
2021/01/11 01:40:28;;;;;;;59.07;34.77;;;2.40;86.40;;;;;;4886127;29;86532;-82
2021/01/11 01:42:54;;;;;;;59.23;34.30;;;2.40;86.60;;;;;;4886188;29;89603;-82
2021/01/11 01:45:21;;;;;;;60.50;34.37;;;2.40;86.90;;;;;;4885396;29;89836;-81
2021/01/11 01:47:47;;;;;;;54.70;32.70;;;2.40;86.60;;;;;;4887186;28;87805;-83
2021/01/11 01:50:14;;;;;;;59.70;34.57;;;2.40;86.20;;;;;;4885903;29;87238;-82
2021/01/11 01:52:42;;;;;;;66.97;36.47;;;2.50;85.70;;;;;;4887613;29;88744;-82
2021/01/11 01:55:12;;;;;;;57.30;34.30;;;2.50;85.40;;;;;;4871408;29;89478;-79
2021/01/11 01:57:39;;;;;;;57.13;33.47;;;2.50;85.40;;;;;;4902003;28;86954;-82
2021/01/11 02:00:07;;;;;;;55.90;33.07;;;2.50;85.30;;;;;;4902385;28;86911;-83
2021/01/11 02:02:38;;;;;;;57.00;33.10;;;2.50;85.00;;;;;;4883952;29;87209;-83
2021/01/11 02:05:09;;;;;;;57.37;34.27;;;2.50;84.20;;;;;;4886509;29;89408;-83
2021/01/11 02:07:46;;;;;;;58.27;35.53;;;2.50;83.90;;;;;;4870386;29;87030;-84
2021/01/11 02:10:47;;;;;;;50.90;32.37;;;2.50;83.90;;;;;;4887342;29;86762;-82
2021/01/11 02:13:37;;;;;;;57.00;32.70;;;2.50;83.90;;;;;;4886772;29;87992;-82
2021/01/11 02:16:33;;;;;;;56.27;35.13;;;2.40;83.40;;;;;;4886573;29;90790;-82
2021/01/11 02:19:41;;;;;;;59.53;34.30;;;2.40;83.30;;;;;;4861732;29;86739;-83
2021/01/11 02:22:11;;;;;;;74.10;37.60;;;2.40;83.50;;;;;;4872220;29;86591;-82
2021/01/11 02:25:08;;;;;;;59.30;33.57;;;2.40;83.00;;;;;;4890864;28;86742;-80
2021/01/11 02:27:48;;;;;;;62.63;34.83;;;2.30;83.20;;;;;;4890924;28;86973;-81
2021/01/11 02:30:30;;;;;;;89.83;47.90;;;2.30;83.40;;;;;;4886045;29;87404;-81
2021/01/11 02:32:57;;;;;;;75.15;40.83;;;2.20;83.20;;;;;;4884776;29;86639;-82
2021/01/11 02:35:26;;;;;;;75.87;40.27;;;2.30;83.60;;;;;;4868392;29;91539;-82
2021/01/11 02:37:53;;;;;;;70.97;40.20;;;2.20;83.10;;;;;;4884483;29;89270;-82
2021/01/11 02:40:19;;;;;;;64.83;38.37;;;2.20;83.10;;;;;;4869555;29;87788;-78
2021/01/11 02:42:45;;;;;;;54.43;33.47;;;2.30;83.70;;;;;;4885680;29;87254;-82
2021/01/11 02:45:12;;;;;;;54.57;33.47;;;2.30;83.10;;;;;;4902042;28;87007;-81
2021/01/11 02:47:59;;;;;;;65.23;38.07;;;2.20;82.70;;;;;;4884674;29;89689;-82
2021/01/11 02:50:26;;;;;;;68.60;37.67;;;2.20;82.00;;;;;;4884844;29;87205;-82
2021/01/11 02:53:18;;;;;;;64.17;35.40;;;2.20;81.90;;;;;;4886850;29;86278;-82
2021/01/11 02:55:54;;;;;;;69.05;38.53;;;2.10;81.80;;;;;;4885201;29;89864;-83
2021/01/11 02:59:23;;;;;;;70.63;39.17;;;2.00;81.90;;;;;;4900849;28;86945;-79
2021/01/11 03:01:56;;;;;;;67.80;36.00;;;2.00;82.60;;;;;;4831891;29;86773;-83
2021/01/11 03:04:25;;;;;;;62.87;36.30;;;1.90;82.20;;;;;;4846885;29;86755;-79
2021/01/11 03:07:02;;;;;;;63.73;35.93;;;1.90;82.20;;;;;;4845811;29;87929;-83
2021/01/11 03:09:28;;;;;;;66.10;36.60;;;2.00;82.30;;;;;;4815855;29;89030;-81
2021/01/11 03:11:56;;;;;;;87.17;46.77;;;2.00;82.10;;;;;;4832382;29;86808;-82
2021/01/11 03:14:23;;;;;;;71.97;41.43;;;2.00;82.20;;;;;;4832004;29;86842;-78
2021/01/11 03:16:50;;;;;;;64.73;36.50;;;1.90;82.10;;;;;;4847556;29;90163;-83
2021/01/11 03:19:16;;;;;;;64.60;37.30;;;1.90;82.10;;;;;;4831677;29;89312;-84
2021/01/11 03:21:42;;;;;;;63.67;36.63;;;1.90;81.80;;;;;;4847006;29;86885;-82
2021/01/11 03:24:08;;;;;;;60.07;34.93;;;1.90;81.90;;;;;;4832773;29;86503;-83
2021/01/11 03:26:37;;;;;;;62.43;35.57;;;1.90;82.60;;;;;;4847467;29;87039;-81
2021/01/11 03:29:04;;;;;;;56.60;32.10;;;1.80;83.00;;;;;;4817164;29;89400;-82
2021/01/11 03:31:30;;;;;;;58.83;34.37;;;1.90;82.50;;;;;;4836871;29;86994;-79
2021/01/11 03:33:56;;;;;;;60.67;34.03;;;1.90;82.80;;;;;;5035316;23;88700;-79
2021/01/11 03:36:23;;;;;;;56.70;34.07;;;1.90;81.70;;;;;;4896129;28;89774;-80
2021/01/11 03:38:49;;;;;;;60.80;35.00;;;1.90;81.40;;;;;;4906806;28;90208;-82
2021/01/11 03:41:16;;;;;;;62.67;35.27;;;1.80;81.20;;;;;;4923153;28;86865;-82
2021/01/11 03:43:44;;;;;;;73.30;37.80;;;1.80;80.70;;;;;;4889021;28;87353;-80
2021/01/11 03:46:12;;;;;;;65.43;37.87;;;1.80;80.60;;;;;;4905521;28;89880;-81
2021/01/11 03:48:39;;;;;;;69.20;39.07;;;1.70;80.50;;;;;;4899787;28;90532;-83
2021/01/11 03:51:05;;;;;;;64.63;36.93;;;1.70;81.30;;;;;;4907016;28;86898;-81
2021/01/11 03:53:32;;;;;;;59.50;36.60;;;1.60;81.50;;;;;;4904042;28;86692;-81
2021/01/11 03:55:58;;;;;;;59.30;37.07;;;1.60;81.60;;;;;;4906350;28;90219;-81
2021/01/11 03:58:24;;;;;;;61.97;36.07;;;1.70;81.70;;;;;;4923453;28;87404;-80
2021/01/11 04:00:51;;;;;;;67.97;36.60;;;1.70;81.50;;;;;;4906156;28;86669;-82
2021/01/11 04:03:18;;;;;;;65.40;35.93;;;1.70;81.00;;;;;;4906110;28;86916;-82
2021/01/11 04:05:45;;;;;;;68.73;39.70;;;1.70;81.40;;;;;;4906650;28;87669;-82
2021/01/11 04:08:11;;;;;;;63.23;36.73;;;1.70;81.10;;;;;;4906382;28;89639;-82
2021/01/11 04:10:38;;;;;;;60.67;36.63;;;1.70;80.60;;;;;;4905571;28;86747;-81
2021/01/11 04:13:05;;;;;;;65.20;38.43;;;1.60;80.40;;;;;;4906913;28;86383;-82
2021/01/11 04:15:31;;;;;;;66.17;38.07;;;1.60;80.30;;;;;;4905943;28;87662;-79
2021/01/11 04:17:58;;;;;;;69.30;35.60;;;1.60;80.40;;;;;;4906262;28;86775;-82
2021/01/11 04:20:24;;;;;;;74.57;39.27;;;1.60;81.10;;;;;;4890269;28;87802;-82
2021/01/11 04:22:51;;;;;;;142.40;65.27;;;1.60;80.90;;;;;;4905565;28;86597;-82
2021/01/11 04:25:17;;;;;;;115.70;56.63;;;1.60;81.10;;;;;;4906013;28;88293;-81
2021/01/11 04:27:44;;;;;;;97.83;48.07;;;1.60;81.10;;;;;;4887969;28;89719;-82
2021/01/11 04:30:11;;;;;;;103.07;51.57;;;1.60;80.50;;;;;;4872704;28;86751;-82
2021/01/11 04:32:40;;;;;;;91.63;45.73;;;1.60;80.30;;;;;;4871000;28;86839;-81
2021/01/11 04:35:08;;;;;;;87.20;44.30;;;1.60;80.30;;;;;;4902382;28;89682;-82
2021/01/11 04:37:37;;;;;;;87.03;46.07;;;1.50;80.40;;;;;;4871112;28;89374;-81
2021/01/11 04:40:06;;;;;;;86.47;44.63;;;1.50;80.30;;;;;;4903939;28;86834;-81
2021/01/11 04:42:48;;;;;;;85.03;47.30;;;1.60;80.50;;;;;;4889705;28;86603;-77
2021/01/11 04:45:15;;;;;;;82.72;43.67;;;1.50;80.40;;;;;;4904734;28;88903;-84
2021/01/11 04:47:42;;;;;;;73.13;40.43;;;1.50;80.50;;;;;;4870391;28;91331;-83
2021/01/11 04:50:09;;;;;;;72.67;39.40;;;1.50;80.20;;;;;;4870853;28;86989;-82
2021/01/11 04:52:35;;;;;;;64.27;35.73;;;1.50;80.50;;;;;;4903458;28;86846;-80
2021/01/11 04:55:03;;;;;;;61.37;35.03;;;1.50;80.60;;;;;;4870617;28;89881;-84
2021/01/11 04:57:42;;;;;;;65.47;34.67;;;1.50;80.00;;;;;;4885791;28;89664;-80
2021/01/11 05:00:10;;;;;;;64.57;34.23;;;1.40;79.90;;;;;;4870040;28;86789;-83
2021/01/11 05:02:46;;;;;;;60.83;34.63;;;1.50;80.10;;;;;;4870466;28;86409;-83
2021/01/11 05:05:13;;;;;;;59.60;32.57;;;1.50;80.30;;;;;;4886891;28;87092;-83
2021/01/11 05:07:39;;;;;;;62.73;32.00;;;1.40;80.60;;;;;;4904301;28;89452;-83
2021/01/11 05:10:08;;;;;;;62.07;34.70;;;1.40;81.00;;;;;;4873173;28;88245;-83
2021/01/11 05:12:34;;;;;;;63.10;33.70;;;1.30;81.40;;;;;;4904685;28;86940;-80
2021/01/11 05:15:17;;;;;;;61.03;33.90;;;1.30;81.70;;;;;;4889238;28;86972;-84
2021/01/11 05:17:45;;;;;;;62.70;35.50;;;1.30;80.90;;;;;;4903712;28;89979;-81
2021/01/11 05:20:13;;;;;;;69.50;38.20;;;1.30;80.60;;;;;;4906399;28;86823;-84
2021/01/11 05:22:46;;;;;;;62.93;33.33;;;1.30;80.50;;;;;;4887134;28;87242;-83
2021/01/11 05:25:17;;;;;;;62.97;33.93;;;1.30;81.10;;;;;;4905588;28;87117;-84
2021/01/11 05:27:45;;;;;;;56.93;31.47;;;1.20;81.70;;;;;;4871444;28;89838;-83
2021/01/11 05:30:30;;;;;;;61.77;32.93;;;1.20;81.00;;;;;;4888018;28;86788;-84
2021/01/11 05:32:56;;;;;;;63.83;33.27;;;1.10;81.50;;;;;;4888721;28;86390;-83
2021/01/11 05:35:24;;;;;;;59.40;32.17;;;1.00;81.70;;;;;;4889114;28;90735;-83
2021/01/11 05:37:54;;;;;;;59.50;32.47;;;1.00;81.80;;;;;;4904064;28;88465;-83
2021/01/11 05:40:25;;;;;;;60.20;31.27;;;1.00;82.00;;;;;;4903720;28;86529;-83
2021/01/11 05:42:53;;;;;;;57.13;32.23;;;0.90;82.20;;;;;;4901425;28;87352;-83
2021/01/11 05:45:33;;;;;;;59.17;32.30;;;0.90;82.40;;;;;;4884872;28;89826;-83
2021/01/11 05:48:05;;;;;;;55.67;29.90;;;0.80;82.70;;;;;;4885472;28;88092;-83
2021/01/11 05:50:37;;;;;;;56.13;30.00;;;0.80;82.70;;;;;;4869257;28;87663;-83
2021/01/11 05:53:03;;;;;;;55.30;31.60;;;0.80;82.70;;;;;;4885974;28;85991;-83
2021/01/11 05:55:33;;;;;;;60.67;30.77;;;0.80;82.60;;;;;;4884617;28;89864;-83
2021/01/11 05:58:02;;;;;;;60.63;30.70;;;0.80;82.70;;;;;;4884771;28;87847;-83
2021/01/11 06:00:30;;;;;;;56.67;30.70;;;0.70;82.80;;;;;;4884384;28;87686;-82
2021/01/11 06:02:58;;;;;;;55.00;29.83;;;0.60;83.00;;;;;;4882323;28;86903;-83
2021/01/11 06:05:26;;;;;;;52.10;27.63;;;0.60;83.00;;;;;;4884157;28;87024;-82
2021/01/11 06:07:53;;;;;;;48.07;28.10;;;0.50;82.70;;;;;;4899991;28;87498;-83
2021/01/11 06:10:21;;;;;;;48.50;27.20;;;0.40;83.00;;;;;;4900105;28;86832;-83
2021/01/11 06:12:48;;;;;;;51.53;26.13;;;0.40;82.80;;;;;;4899351;28;86899;-83
2021/01/11 06:15:21;;;;;;;48.30;25.27;;;0.50;82.70;;;;;;4868627;28;89655;-83
2021/01/11 06:17:50;;;;;;;47.70;26.03;;;0.40;82.70;;;;;;4866408;28;89682;-83
2021/01/11 06:20:23;;;;;;;45.97;25.77;;;0.50;82.50;;;;;;4883752;28;86618;-83
2021/01/11 06:22:49;;;;;;;45.93;25.40;;;0.40;83.40;;;;;;4884732;28;86872;-83
2021/01/11 06:25:18;;;;;;;46.87;25.73;;;0.40;83.00;;;;;;4901081;28;88248;-83
2021/01/11 06:27:57;;;;;;;44.23;24.43;;;0.30;83.20;;;;;;4868973;28;90678;-83
2021/01/11 06:30:33;;;;;;;48.67;25.87;;;0.30;83.40;;;;;;4902675;28;86868;-83
2021/01/11 06:33:26;;;;;;;55.50;26.97;;;0.30;83.60;;;;;;4882646;28;87019;-83
2021/01/11 06:35:53;;;;;;;51.53;29.10;;;0.40;83.90;;;;;;4875688;28;88341;-82
2021/01/11 06:38:25;;;;;;;55.93;30.50;;;0.30;84.10;;;;;;4882915;28;86952;-83
2021/01/11 06:41:10;;;;;;;;;;;0.40;84.30;;;;;;4867093;28;87577;-83
2021/01/11 06:43:52;;;;;;;57.40;30.07;;;0.40;84.20;;;;;;4903977;28;86201;-83
2021/01/11 06:46:27;;;;;;;;;;;0.50;84.10;;;;;;4886081;28;87854;-83
2021/01/11 06:48:57;;;;;;;50.33;28.83;;;0.50;84.00;;;;;;4871333;28;88647;-83
2021/01/11 06:51:31;;;;;;;58.23;31.10;;;0.50;84.00;;;;;;4868832;28;88000;-83
2021/01/11 06:54:14;;;;;;;58.30;32.77;;;0.60;84.30;;;;;;4885454;28;87450;-83
2021/01/11 06:56:40;;;;;;;;;;;0.60;84.20;;;;;;4890681;28;87114;-79
2021/01/11 06:59:08;;;;;;;62.97;31.13;;;0.60;83.90;;;;;;4986870;23;86447;-88
2021/01/11 07:01:38;;;;;;;59.53;33.27;;;0.70;83.90;;;;;;4913128;28;86647;-89
2021/01/11 07:04:08;;;;;;;69.23;36.63;;;0.80;83.70;;;;;;4957171;23;86891;-82
2021/01/11 07:06:43;;;;;;;70.97;36.07;;;0.80;83.50;;;;;;4920954;28;88950;-82
2021/01/11 07:09:18;;;;;;;63.10;35.43;;;0.80;83.40;;;;;;4922277;28;87107;-82
2021/01/11 07:11:50;;;;;;;62.70;34.70;;;0.80;83.30;;;;;;4937212;28;86674;-82
2021/01/11 07:14:23;;;;;;;57.33;34.65;;;0.90;83.10;;;;;;4936633;28;87134;-82
2021/01/11 07:16:52;;;;;;;70.93;35.33;;;0.90;82.90;;;;;;4937217;28;89014;-81
2021/01/11 07:19:23;;;;;;;58.73;34.97;;;0.90;82.90;;;;;;4920684;28;89969;-82
2021/01/11 07:21:50;;;;;;;64.47;36.90;;;0.90;82.80;;;;;;4937820;28;86841;-82
2021/01/11 07:24:17;;;;;;;65.50;36.00;;;1.00;82.50;;;;;;4904814;28;86761;-82
2021/01/11 07:26:43;;;;;;;64.23;35.83;;;1.00;82.50;;;;;;4920280;28;87159;-79
2021/01/11 07:29:11;;;;;;;66.63;36.13;;;1.10;82.30;;;;;;4935593;28;87998;-81
2021/01/11 07:31:42;;;;;;;62.17;36.43;;;1.10;82.00;;;;;;4931816;28;87459;-81
2021/01/11 07:34:15;;;;;;;61.20;36.67;;;1.20;81.90;;;;;;4898321;28;88256;-81
2021/01/11 07:42:23;;;;;;;67.57;37.07;;;1.20;81.40;;;;;;4912873;28;88683;-81
2021/01/11 07:44:49;;;;;;;64.53;36.63;;;1.30;81.30;;;;;;5055934;23;88398;-78
2021/01/11 07:47:16;;;;;;;66.60;37.87;;;1.20;81.70;;;;;;4874613;28;91688;-80
2021/01/11 07:49:49;;;;;;;65.37;36.33;;;1.20;82.50;;;;;;4880301;28;91404;-78
2021/01/11 07:52:18;;;;;;;68.97;37.00;;;1.30;82.00;;;;;;4889094;28;87176;-82
2021/01/11 07:54:46;;;;;;;74.10;38.40;;;1.50;80.60;;;;;;4872303;28;87901;-78
2021/01/11 07:57:15;;;;;;;69.70;37.47;;;1.70;79.90;;;;;;4883185;28;90523;-80
2021/01/11 07:59:43;;;;;;;67.63;35.77;;;1.90;78.90;;;;;;4856758;28;89200;-80
2021/01/11 08:02:13;;;;;;;64.10;35.53;;;2.10;78.00;;;;;;4883363;28;86938;-80
2021/01/11 08:04:42;;;;;;;64.27;36.00;;;2.30;77.40;;;;;;4886503;28;87851;-80
2021/01/11 08:07:08;;;;;;;62.97;33.87;;;2.60;76.50;;;;;;4874517;28;91885;-80
2021/01/11 08:09:35;;;;;;;58.10;32.60;;;2.90;75.10;;;;;;4883916;28;90177;-80
2021/01/11 08:12:16;;;;;;;56.20;35.37;;;3.10;74.10;;;;;;4872859;28;87653;-81
2021/01/11 08:14:44;;;;;;;57.23;33.27;;;3.50;73.40;;;;;;4878747;28;87575;-81
2021/01/11 08:17:21;;;;;;;49.07;29.70;;;3.80;71.90;;;;;;4895397;28;90837;-83
2021/01/11 08:30:30;;;;;;;43.30;26.23;;;4.90;64.80;;;;;;5124243;23;89593;-84
2021/01/11 08:35:38;;;;;;;50.63;29.20;;;5.10;64.60;;;;;;5798478;23;88514;-82
2021/01/11 08:38:08;;;;;;;46.90;27.17;;;5.30;62.90;;;;;;5021791;23;88936;-84
2021/01/11 08:40:34;;;;;;;43.87;25.03;;;5.40;61.90;;;;;;4914589;28;89722;-81
2021/01/11 08:43:25;;;;;;;50.67;27.47;;;5.50;60.60;;;;;;4931417;28;86576;-82
2021/01/11 08:45:52;;;;;;;52.47;29.93;;;5.50;60.70;;;;;;4946132;28;86552;-81
2021/01/11 08:48:25;;;;;;;85.27;37.77;;;5.60;61.30;;;;;;4938872;28;90173;-74
2021/01/11 08:50:51;;;;;;;60.73;31.07;;;5.80;61.50;;;;;;4939338;28;86294;-73
2021/01/11 08:53:17;;;;;;;75.13;36.53;;;5.90;60.70;;;;;;4921534;28;87154;-79
2021/01/11 08:56:04;;;;;;;58.07;29.23;;;6.00;60.50;;;;;;4921570;28;87242;-79
2021/01/11 08:58:34;;;;;;;63.57;32.77;;;6.10;59.30;;;;;;4909018;28;89267;-78
2021/01/11 09:01:17;;;;;;;51.80;28.23;;;6.20;59.30;;;;;;4886013;28;89629;-79
2021/01/11 09:03:47;;;;;;;44.97;24.33;;;6.30;57.20;;;;;;4924573;28;86930;-79
2021/01/11 09:06:33;;;;;;;52.07;27.27;;;6.40;57.40;;;;;;4902071;28;88024;-79
2021/01/11 09:09:13;;;;;;;49.20;26.03;;;6.50;56.00;;;;;;4906741;28;88879;-78
2021/01/11 09:11:40;;;;;;;51.97;29.23;;;6.50;56.60;;;;;;4889697;28;90348;-79
2021/01/11 09:14:14;;;;;;;54.10;27.47;;;6.60;56.10;;;;;;4906704;28;87111;-78
2021/01/11 09:16:44;;;;;;;53.20;28.60;;;6.70;56.40;;;;;;4889508;28;87995;-78
2021/01/11 09:19:18;;;;;;;47.40;26.37;;;6.90;55.90;;;;;;4905052;28;88490;-78
2021/01/11 09:21:56;;;;;;;66.13;34.60;;;7.00;55.30;;;;;;4890892;28;90734;-79
2021/01/11 09:24:22;;;;;;;59.97;31.97;;;7.10;54.90;;;;;;4913699;28;88337;-80
2021/01/11 09:26:48;;;;;;;51.27;27.90;;;7.20;54.70;;;;;;4882481;28;86921;-78
2021/01/11 09:29:14;;;;;;;48.07;27.77;;;7.30;55.30;;;;;;4891457;28;91418;-78
2021/01/11 09:31:41;;;;;;;71.77;36.23;;;7.40;54.70;;;;;;4891354;28;91552;-79
2021/01/11 09:34:06;;;;;;;49.67;27.93;;;7.40;55.40;;;;;;4906766;28;87299;-78
2021/01/11 09:36:38;;;;;;;52.30;31.43;;;7.50;54.50;;;;;;4909645;28;87600;-78
2021/01/11 09:39:15;;;;;;;43.65;25.08;;;7.60;54.90;;;;;;4898589;28;90524;-78
2021/01/11 09:41:51;;;;;;;50.70;24.73;;;7.60;54.10;;;;;;4902808;28;91897;-79
2021/01/11 09:44:17;;;;;;;45.83;24.80;;;7.60;54.30;;;;;;4894119;28;87139;-78
2021/01/11 09:46:52;;;;;;;49.27;26.53;;;7.60;54.10;;;;;;4908576;28;87094;-79
2021/01/11 09:49:19;;;;;;;44.50;26.10;;;7.70;52.80;;;;;;4888201;28;92181;-78
2021/01/11 09:51:46;;;;;;;47.70;26.30;;;7.60;53.50;;;;;;4908805;28;88439;-78
2021/01/11 09:54:11;;;;;;;43.70;25.60;;;7.60;53.70;;;;;;4894469;28;86954;-78
2021/01/11 09:56:38;;;;;;;45.10;25.97;;;7.70;54.50;;;;;;4911376;28;87565;-78
2021/01/11 09:59:06;;;;;;;48.80;24.77;;;7.80;52.70;;;;;;4910674;28;88154;-79
2021/01/11 10:01:39;;;;;;;35.23;20.03;;;7.70;52.80;;;;;;4908663;28;90359;-78
2021/01/11 10:04:05;;;;;;;37.50;21.57;;;7.70;51.40;;;;;;4899304;28;87458;-78
2021/01/11 10:06:57;;;;;;;38.83;21.95;;;7.70;51.30;;;;;;4912069;28;87286;-78
2021/01/11 10:09:25;;;;;;;32.43;20.80;;;7.60;52.10;;;;;;4904632;28;91442;-78
2021/01/11 10:11:53;;;;;;;34.03;21.93;;;7.70;52.40;;;;;;4902767;28;90148;-78
2021/01/11 10:14:20;;;;;;;40.17;20.67;;;7.80;52.70;;;;;;4909155;28;88095;-78
2021/01/11 10:16:46;;;;;;;42.13;23.07;;;7.80;51.60;;;;;;4882484;28;87810;-78
2021/01/11 10:19:19;;;;;;;42.85;23.00;;;7.70;50.80;;;;;;4923985;28;91794;-78
2021/01/11 10:21:45;;;;;;;39.00;21.03;;;7.70;50.20;;;;;;4902871;28;87488;-78
2021/01/11 10:24:11;;;;;;;31.73;19.83;;;7.70;49.00;;;;;;4910977;28;87006;-78
2021/01/11 10:26:44;;;;;;;28.93;17.60;;;7.60;49.50;;;;;;4915216;28;88328;-78
2021/01/11 10:29:11;;;;;;;42.07;23.13;;;7.40;50.10;;;;;;4906909;28;88320;-78
2021/01/11 10:31:38;;;;;;;62.47;30.73;;;7.40;51.10;;;;;;4895453;28;91160;-78
2021/01/11 10:34:04;;;;;;;49.23;27.03;;;7.40;51.80;;;;;;4903234;28;87453;-77
2021/01/11 10:36:46;;;;;;;76.57;35.80;;;7.40;52.10;;;;;;4918275;28;87088;-78
2021/01/11 10:39:13;;;;;;;36.77;22.70;;;7.30;51.60;;;;;;4906762;28;89367;-78
2021/01/11 10:41:39;;;;;;;48.57;26.27;;;7.30;52.10;;;;;;4889118;28;91674;-78
2021/01/11 10:44:09;;;;;;;35.73;23.30;;;7.30;51.30;;;;;;4905480;28;87471;-77
2021/01/11 10:46:36;;;;;;;39.20;23.23;;;7.30;51.70;;;;;;4905815;28;87542;-78
2021/01/11 10:49:05;;;;;;;39.47;23.70;;;7.30;51.80;;;;;;4886137;28;91840;-77
2021/01/11 10:51:34;;;;;;;45.43;28.43;;;7.30;51.10;;;;;;4919765;28;88089;-78
2021/01/11 10:54:00;;;;;;;46.37;27.47;;;7.20;51.60;;;;;;4870364;28;87363;-78
2021/01/11 10:56:26;;;;;;;52.43;28.57;;;7.10;51.50;;;;;;4904629;28;86285;-79
2021/01/11 10:58:53;;;;;;;40.43;23.80;;;7.00;51.90;;;;;;4894917;28;88849;-77
2021/01/11 11:01:19;;;;;;;56.47;28.03;;;6.90;52.30;;;;;;4896549;28;88474;-78
2021/01/11 11:03:44;;;;;;;120.93;50.17;;;7.00;52.50;;;;;;4892906;28;89292;-78
2021/01/11 11:06:18;;;;;;;93.73;40.77;;;6.90;52.30;;;;;;4890646;28;87513;-78
2021/01/11 11:08:44;;;;;;;62.47;32.73;;;6.80;53.20;;;;;;4909173;28;88166;-78
2021/01/11 11:11:11;;;;;;;54.60;29.30;;;6.60;53.40;;;;;;4897561;28;88390;-78
2021/01/11 11:13:39;;;;;;;51.13;26.83;;;6.50;54.20;;;;;;4886844;28;87078;-78
2021/01/11 11:16:10;;;;;;;53.87;27.93;;;6.50;54.20;;;;;;4891620;28;87100;-78
2021/01/11 11:18:40;;;;;;;39.53;22.92;;;6.60;53.80;;;;;;4880674;28;90164;-78
2021/01/11 11:21:09;;;;;;;42.23;24.73;;;6.60;53.80;;;;;;4890786;28;87959;-78
2021/01/11 11:23:35;;;;;;;48.83;27.27;;;6.60;53.50;;;;;;4890608;28;87034;-78
2021/01/11 11:26:02;;;;;;;42.47;24.17;;;6.40;54.00;;;;;;4878186;28;88229;-78
2021/01/11 11:28:32;;;;;;;82.33;38.67;;;6.30;54.40;;;;;;4879415;28;92416;-77
2021/01/11 11:30:58;;;;;;;49.77;25.00;;;6.30;54.60;;;;;;4886199;28;91446;-78
2021/01/11 11:33:24;;;;;;;65.80;34.93;;;6.20;54.40;;;;;;4902420;28;87145;-78
2021/01/11 11:35:51;;;;;;;65.90;35.77;;;6.20;55.30;;;;;;4895235;28;88277;-79
2021/01/11 11:38:21;;;;;;;56.13;30.87;;;6.10;55.80;;;;;;4896451;28;90289;-80
2021/01/11 11:40:47;;;;;;;61.47;35.27;;;6.20;55.50;;;;;;4913003;28;89946;-80
2021/01/11 11:43:14;;;;;;;47.30;26.20;;;6.20;56.00;;;;;;4904864;28;88226;-79
2021/01/11 11:45:42;;;;;;;41.40;22.33;;;6.20;55.90;;;;;;4910120;28;86483;-78
2021/01/11 11:48:08;;;;;;;40.97;22.67;;;6.20;54.90;;;;;;4903848;28;88105;-78
2021/01/11 11:50:34;;;;;;;41.87;23.57;;;6.20;54.90;;;;;;4906636;28;87924;-78
2021/01/11 11:53:00;;;;;;;43.73;24.57;;;6.10;55.90;;;;;;4899734;28;88880;-78
2021/01/11 11:55:26;;;;;;;39.30;22.77;;;6.10;55.50;;;;;;4904441;28;87145;-79
2021/01/11 11:57:52;;;;;;;47.90;24.40;;;6.00;56.20;;;;;;4910942;28;89743;-78
2021/01/11 12:00:18;;;;;;;41.83;25.77;;;6.00;55.90;;;;;;4910572;28;91106;-78
2021/01/11 12:02:46;;;;;;;46.47;24.63;;;5.90;56.40;;;;;;4894938;28;87326;-77
2021/01/11 12:05:14;;;;;;;45.90;25.67;;;5.90;57.50;;;;;;4908373;28;87964;-78
2021/01/11 12:07:40;;;;;;;41.93;24.20;;;5.80;57.60;;;;;;4909284;28;88489;-78
2021/01/11 12:10:08;;;;;;;39.87;23.07;;;5.80;57.60;;;;;;4897485;28;89951;-78
2021/01/11 12:12:34;;;;;;;41.57;22.37;;;5.70;57.80;;;;;;4897568;28;87003;-78
2021/01/11 12:15:02;;;;;;;46.73;24.20;;;5.60;58.50;;;;;;4892752;28;87617;-77
2021/01/11 12:17:29;;;;;;;39.13;23.30;;;5.40;58.70;;;;;;4918514;28;88045;-78
2021/01/11 12:19:55;;;;;;;41.63;22.97;;;5.10;59.50;;;;;;4919386;28;92520;-76
2021/01/11 12:22:21;;;;;;;38.80;21.83;;;5.00;60.50;;;;;;4919807;28;87154;-77
2021/01/11 12:24:47;;;;;;;38.50;20.90;;;4.90;60.30;;;;;;4910267;28;87915;-77
2021/01/11 12:27:12;;;;;;;34.37;20.10;;;4.90;60.60;;;;;;4889381;28;91525;-78
2021/01/11 12:29:38;;;;;;;35.47;20.17;;;4.90;60.70;;;;;;4893200;28;91780;-78
2021/01/11 12:32:09;;;;;;;34.07;18.53;;;4.90;60.20;;;;;;4903637;28;87235;-78
2021/01/11 12:34:39;;;;;;;32.37;17.97;;;4.80;60.20;;;;;;4894801;28;86674;-78
2021/01/11 12:37:07;;;;;;;22.97;13.93;;;4.90;59.60;;;;;;4899508;28;91633;-78
2021/01/11 12:39:33;;;;;;;26.57;13.40;;;4.90;58.50;;;;;;4903205;28;91316;-77
2021/01/11 12:41:59;;;;;;;21.77;12.43;;;4.90;57.30;;;;;;4902144;28;88052;-77
2021/01/11 12:44:25;;;;;;;16.13;10.80;;;4.80;57.20;;;;;;4898793;28;87859;-77
2021/01/11 12:46:50;;;;;;;19.20;9.73;;;4.80;56.00;;;;;;4908187;28;87700;-78
2021/01/11 12:49:17;;;;;;;19.27;9.83;;;4.80;55.80;;;;;;4892696;28;89995;-78
2021/01/11 12:51:42;;;;;;;18.33;10.20;;;4.70;56.20;;;;;;4909232;28;87602;-78
2021/01/11 12:54:08;;;;;;;16.87;10.40;;;4.70;56.30;;;;;;4900006;28;87456;-78
2021/01/11 12:56:34;;;;;;;16.93;10.20;;;4.80;56.40;;;;;;4899769;28;87968;-77
2021/01/11 12:59:00;;;;;;;16.27;10.23;;;4.80;55.90;;;;;;4883919;28;91398;-77
2021/01/11 13:01:30;;;;;;;18.20;10.93;;;4.70;56.60;;;;;;4898859;28;87601;-80
2021/01/11 13:03:59;;;;;;;19.80;11.53;;;4.70;56.70;;;;;;4906834;28;87241;-80
2021/01/11 13:06:32;;;;;;;18.63;12.33;;;4.60;57.10;;;;;;4915603;28;90928;-80
2021/01/11 13:09:00;;;;;;;19.47;11.93;;;4.50;57.80;;;;;;4941134;28;87677;-79
2021/01/11 13:11:28;;;;;;;19.13;12.23;;;4.50;57.70;;;;;;4928796;28;87049;-80